• Join FlightAware (Why Join?)
  • Login
  • US Flag 
08:42PM EDT


 

Airport Tracker/Info


-or-


 

Live Flight TrackerFlight Track Log ✈ RPA3275 ✈ 20-May-2013 ✈ KALB - KPHL

Flight Track Log - Related Links

Times and Time Zones

All times are in EDT time to prevent confusion due to time zone crossing. See the RPA3275 flight status page for this flight to view local times or setup timezone preferences in your user account.

Time Position Orientation Groundspeed Altitude Reporting Facility
EDT Latitude Longitude Course Direction KTS MPH feet Rate Location/Type
07:02AM 42.7256 -73.8053 220° Southwest 152 175 1,300  Level Boston Center
07:04AM 42.7019 -73.8639 241° Southwest 203 234 3,500 1,800 Climbing Boston Center
07:05AM 42.7333 -74.2237 270° West  Level FlightAware Approximate
07:05AM 42.7133 -73.9603 279° West 253 291 5,700  Level Boston Center
07:06AM 42.7211 -74.3245 236° Southwest  Level FlightAware Approximate
07:06AM 42.7225 -74.0567 277° West 259 298 8,400  Level Boston Center
07:07AM 42.6628 -74.3941 220° Southwest  Level FlightAware Approximate
07:07AM 42.7333 -74.1700 277° West 267 307 10,900  Level Boston Center
07:08AM 42.6028 -74.4615 220° Southwest  Level FlightAware Approximate
07:08AM 42.7419 -74.2719 277° West 294 338 12,900  Level Boston Center
07:09AM 42.6881 -74.3778 235° Southwest 304 350 15,100 1,860 Climbing Boston Center
07:10AM 42.6222 -74.4519 220° Southwest 329 379 16,700 1,440 Climbing Boston Center
07:11AM 42.5392 -74.5478 220° Southwest 357 411 18,000 600 Climbing Boston Center
07:12AM 42.4711 -74.6244 220° Southwest 357 411 18,000  Level Boston Center
07:14AM 42.3256 -74.7928 221° Southwest 350 403 18,000  Level New York Center
07:15AM 42.2500 -74.8778 220° Southwest 350 403 18,000  Level New York Center
07:16AM 42.1742 -74.9597 219° Southwest 350 403 18,000  Level New York Center
07:17AM 42.0925 -75.0328 214° Southwest 356 410 18,000  Level New York Center
07:18AM 42.0069 -75.1000 210° Southwest 361 415 18,000  Level New York Center
07:19AM 41.9144 -75.1775 212° Southwest 361 415 18,000  Level New York Center
07:20AM 41.8306 -75.2469 212° Southwest 361 415 18,000  Level New York Center
07:21AM 41.7447 -75.3136 210° Southwest 361 415 18,000 -600 Level New York Center
07:22AM 41.6717 -75.3725 211° Southwest 356 410 16,900 -1,500 Descending New York Center
07:23AM 41.5881 -75.4386 211° Southwest 349 402 15,000 -1,980 Descending New York Center
07:24AM 41.5019 -75.5103 212° Southwest 349 402 13,000 -1,500 Descending New York Center
07:25AM 41.4244 -75.5711 210° Southwest 341 392 12,000 -540 Descending New York Center
07:26AM 41.3469 -75.6319 211° Southwest 334 384 12,000  Level New York Center
07:27AM 41.2675 -75.6869 207° Southwest 334 384 12,000  Level New York Center
07:28AM 41.1883 -75.6894 181° South 320 368 12,000  Level New York Center
07:29AM 41.0864 -75.6875 179° South 327 376 12,000  Level New York Center
07:30AM 40.9947 -75.6864 179° South 327 376 12,000  Level New York Center
07:31AM 40.9050 -75.6883 181° South 332 382 12,000  Level New York Center
07:32AM 40.8156 -75.6872 179° South 332 382 12,000  Level New York Center
07:33AM 40.7322 -75.6867 180° South 332 382 12,000  Level New York Center
07:34AM 40.6322 -75.6850 179° South 332 382 12,000 -120 Level New York Center
07:35AM 40.5531 -75.6331 153° Southeast 326 375 11,800 -900 Descending New York Center
07:36AM 40.5011 -75.5311 124° Southeast 324 373 10,200 -1,080 Descending New York Center
07:37AM 40.4497 -75.4592 133° Southeast 312 359 9,700 -1,260 Descending New York Center
07:38AM 40.3619 -75.4642 182° South 267 307 7,800 -1,380 Descending New York Center
07:39AM 40.2867 -75.4700 183° South 273 314 7,000 -420 Descending New York Center
07:40AM 40.2114 -75.4786 185° South 273 314 7,000 -420 Level New York Center
07:41AM 40.1422 -75.4847 184° South 281 323 6,200 -540 Descending New York Center
07:42AM 40.0628 -75.4956 186° South 275 316 6,000 -240 Descending New York Center
07:43AM 39.9958 -75.5019 184° South 275 316 5,800 -540 Descending New York Center
07:44AM 39.9253 -75.5431 204° Southwest 270 311 5,000 -420 Descending New York Center
07:45AM 39.8822 -75.5753 210° Southwest 228 262 5,000 -360 Level New York Center
07:46AM 39.8414 -75.6022 207° Southwest 178 205 4,300 -900 Descending New York Center
07:47AM 39.8167 -75.5667 132° Southeast 214 246 3,500 -840 Descending Philadelphia TRACON
07:47AM 39.8167 -75.5000 90° East 201 231 3,000 -660 Descending Philadelphia TRACON
07:48AM 39.8333 -75.4333 72° East 201 231 2,400 -720 Descending Philadelphia TRACON